sensor_id;sensor_type;location;lat;lon;timestamp;P1;durP1;ratioP1;P2;durP2;ratioP2
19339;SDS011;9804;52.350;6.684;2024-03-25T00:01:06;20.83;;;3.43;;
19339;SDS011;9804;52.350;6.684;2024-03-25T00:03:31;20.50;;;3.70;;
19339;SDS011;9804;52.350;6.684;2024-03-25T00:05:57;23.27;;;4.73;;
19339;SDS011;9804;52.350;6.684;2024-03-25T00:08:22;26.10;;;3.20;;
19339;SDS011;9804;52.350;6.684;2024-03-25T00:10:48;21.93;;;3.73;;
19339;SDS011;9804;52.350;6.684;2024-03-25T00:13:13;22.97;;;3.30;;
19339;SDS011;9804;52.350;6.684;2024-03-25T00:15:39;20.93;;;3.20;;
19339;SDS011;9804;52.350;6.684;2024-03-25T00:18:05;20.93;;;3.33;;
19339;SDS011;9804;52.350;6.684;2024-03-25T00:20:30;29.77;;;4.17;;
19339;SDS011;9804;52.350;6.684;2024-03-25T00:22:55;22.17;;;4.83;;
19339;SDS011;9804;52.350;6.684;2024-03-25T00:25:21;17.60;;;3.53;;
19339;SDS011;9804;52.350;6.684;2024-03-25T00:27:46;15.60;;;3.37;;
19339;SDS011;9804;52.350;6.684;2024-03-25T00:30:12;14.60;;;2.93;;
19339;SDS011;9804;52.350;6.684;2024-03-25T00:32:38;23.77;;;3.40;;
19339;SDS011;9804;52.350;6.684;2024-03-25T00:35:04;23.03;;;3.60;;
19339;SDS011;9804;52.350;6.684;2024-03-25T00:37:29;20.93;;;4.30;;
19339;SDS011;9804;52.350;6.684;2024-03-25T00:39:55;18.13;;;3.40;;
19339;SDS011;9804;52.350;6.684;2024-03-25T00:42:20;27.33;;;3.07;;
19339;SDS011;9804;52.350;6.684;2024-03-25T00:44:46;16.03;;;2.77;;
19339;SDS011;9804;52.350;6.684;2024-03-25T00:47:11;25.37;;;2.50;;
19339;SDS011;9804;52.350;6.684;2024-03-25T00:49:37;24.37;;;3.23;;
19339;SDS011;9804;52.350;6.684;2024-03-25T00:52:03;21.30;;;3.23;;
19339;SDS011;9804;52.350;6.684;2024-03-25T00:54:29;28.63;;;3.90;;
19339;SDS011;9804;52.350;6.684;2024-03-25T00:56:54;20.67;;;3.13;;
19339;SDS011;9804;52.350;6.684;2024-03-25T00:59:20;27.33;;;3.90;;
19339;SDS011;9804;52.350;6.684;2024-03-25T01:01:45;18.47;;;2.87;;
19339;SDS011;9804;52.350;6.684;2024-03-25T01:04:11;23.47;;;3.53;;
19339;SDS011;9804;52.350;6.684;2024-03-25T01:06:36;18.43;;;2.73;;
19339;SDS011;9804;52.350;6.684;2024-03-25T01:09:02;17.07;;;3.33;;
19339;SDS011;9804;52.350;6.684;2024-03-25T01:11:29;26.27;;;3.50;;
19339;SDS011;9804;52.350;6.684;2024-03-25T01:13:55;20.40;;;2.80;;
19339;SDS011;9804;52.350;6.684;2024-03-25T01:16:21;20.77;;;2.70;;
19339;SDS011;9804;52.350;6.684;2024-03-25T01:18:47;26.37;;;3.30;;
19339;SDS011;9804;52.350;6.684;2024-03-25T01:21:12;27.93;;;3.63;;
19339;SDS011;9804;52.350;6.684;2024-03-25T01:23:37;26.37;;;3.30;;
19339;SDS011;9804;52.350;6.684;2024-03-25T01:26:03;21.20;;;2.70;;
19339;SDS011;9804;52.350;6.684;2024-03-25T01:28:29;27.30;;;3.40;;
19339;SDS011;9804;52.350;6.684;2024-03-25T01:30:54;22.53;;;3.27;;
19339;SDS011;9804;52.350;6.684;2024-03-25T01:33:19;27.93;;;4.93;;
19339;SDS011;9804;52.350;6.684;2024-03-25T01:35:45;24.37;;;2.90;;
19339;SDS011;9804;52.350;6.684;2024-03-25T01:38:10;22.23;;;3.73;;
19339;SDS011;9804;52.350;6.684;2024-03-25T01:40:36;26.30;;;3.27;;
19339;SDS011;9804;52.350;6.684;2024-03-25T01:43:02;16.93;;;2.93;;
19339;SDS011;9804;52.350;6.684;2024-03-25T01:45:29;15.83;;;2.97;;
19339;SDS011;9804;52.350;6.684;2024-03-25T01:47:56;24.67;;;3.07;;
19339;SDS011;9804;52.350;6.684;2024-03-25T01:50:22;25.90;;;3.70;;
19339;SDS011;9804;52.350;6.684;2024-03-25T01:52:48;25.50;;;3.40;;
19339;SDS011;9804;52.350;6.684;2024-03-25T01:55:21;31.53;;;4.67;;
19339;SDS011;9804;52.350;6.684;2024-03-25T01:57:50;19.07;;;2.80;;
19339;SDS011;9804;52.350;6.684;2024-03-25T02:00:16;22.50;;;3.27;;
19339;SDS011;9804;52.350;6.684;2024-03-25T02:02:43;22.97;;;2.93;;
19339;SDS011;9804;52.350;6.684;2024-03-25T02:05:12;18.57;;;2.47;;
19339;SDS011;9804;52.350;6.684;2024-03-25T02:07:41;16.40;;;2.70;;
19339;SDS011;9804;52.350;6.684;2024-03-25T02:10:08;24.60;;;2.60;;
19339;SDS011;9804;52.350;6.684;2024-03-25T02:12:41;18.80;;;2.67;;
19339;SDS011;9804;52.350;6.684;2024-03-25T02:15:08;18.30;;;2.37;;
19339;SDS011;9804;52.350;6.684;2024-03-25T02:17:34;19.23;;;2.90;;
19339;SDS011;9804;52.350;6.684;2024-03-25T02:20:00;20.27;;;2.90;;
19339;SDS011;9804;52.350;6.684;2024-03-25T02:22:28;25.20;;;2.83;;
19339;SDS011;9804;52.350;6.684;2024-03-25T02:24:54;13.13;;;2.60;;
19339;SDS011;9804;52.350;6.684;2024-03-25T02:27:22;12.63;;;2.33;;
19339;SDS011;9804;52.350;6.684;2024-03-25T02:29:48;23.80;;;3.33;;
19339;SDS011;9804;52.350;6.684;2024-03-25T02:32:14;17.77;;;2.80;;
19339;SDS011;9804;52.350;6.684;2024-03-25T02:34:40;17.80;;;3.30;;
19339;SDS011;9804;52.350;6.684;2024-03-25T02:37:09;19.37;;;3.77;;
19339;SDS011;9804;52.350;6.684;2024-03-25T02:39:34;20.63;;;2.63;;
19339;SDS011;9804;52.350;6.684;2024-03-25T02:42:00;24.13;;;3.20;;
19339;SDS011;9804;52.350;6.684;2024-03-25T02:44:26;23.40;;;3.37;;
19339;SDS011;9804;52.350;6.684;2024-03-25T02:46:52;20.43;;;3.33;;
19339;SDS011;9804;52.350;6.684;2024-03-25T02:49:17;23.93;;;3.00;;
19339;SDS011;9804;52.350;6.684;2024-03-25T02:51:43;17.67;;;3.00;;
19339;SDS011;9804;52.350;6.684;2024-03-25T02:54:08;27.63;;;4.10;;
19339;SDS011;9804;52.350;6.684;2024-03-25T02:56:34;22.57;;;3.37;;
19339;SDS011;9804;52.350;6.684;2024-03-25T02:59:00;18.70;;;3.03;;
19339;SDS011;9804;52.350;6.684;2024-03-25T03:01:26;26.37;;;3.67;;
19339;SDS011;9804;52.350;6.684;2024-03-25T03:03:51;29.37;;;3.57;;
19339;SDS011;9804;52.350;6.684;2024-03-25T03:06:17;29.83;;;4.20;;
19339;SDS011;9804;52.350;6.684;2024-03-25T03:08:43;25.97;;;3.70;;
19339;SDS011;9804;52.350;6.684;2024-03-25T03:11:09;20.83;;;3.53;;
19339;SDS011;9804;52.350;6.684;2024-03-25T03:13:35;24.23;;;3.23;;
19339;SDS011;9804;52.350;6.684;2024-03-25T03:16:00;33.97;;;4.00;;
19339;SDS011;9804;52.350;6.684;2024-03-25T03:18:25;25.17;;;4.10;;
19339;SDS011;9804;52.350;6.684;2024-03-25T03:20:52;25.93;;;3.40;;
19339;SDS011;9804;52.350;6.684;2024-03-25T03:23:20;32.87;;;4.10;;
19339;SDS011;9804;52.350;6.684;2024-03-25T03:25:46;22.17;;;3.67;;
19339;SDS011;9804;52.350;6.684;2024-03-25T03:28:11;21.07;;;4.20;;
19339;SDS011;9804;52.350;6.684;2024-03-25T03:30:37;26.90;;;3.20;;
19339;SDS011;9804;52.350;6.684;2024-03-25T03:33:02;24.27;;;3.57;;
19339;SDS011;9804;52.350;6.684;2024-03-25T03:35:28;34.20;;;3.80;;
19339;SDS011;9804;52.350;6.684;2024-03-25T03:37:53;27.63;;;3.87;;
19339;SDS011;9804;52.350;6.684;2024-03-25T03:40:18;29.83;;;3.73;;
19339;SDS011;9804;52.350;6.684;2024-03-25T03:42:44;19.40;;;3.10;;
19339;SDS011;9804;52.350;6.684;2024-03-25T03:45:09;26.63;;;4.27;;
19339;SDS011;9804;52.350;6.684;2024-03-25T03:47:35;21.37;;;3.67;;
19339;SDS011;9804;52.350;6.684;2024-03-25T03:50:01;37.23;;;4.93;;
19339;SDS011;9804;52.350;6.684;2024-03-25T03:52:26;32.93;;;4.03;;
19339;SDS011;9804;52.350;6.684;2024-03-25T03:54:52;25.10;;;3.80;;
19339;SDS011;9804;52.350;6.684;2024-03-25T03:57:17;26.27;;;4.70;;
19339;SDS011;9804;52.350;6.684;2024-03-25T03:59:42;25.10;;;4.63;;
19339;SDS011;9804;52.350;6.684;2024-03-25T04:02:08;20.33;;;3.50;;
19339;SDS011;9804;52.350;6.684;2024-03-25T04:04:34;30.40;;;3.90;;
19339;SDS011;9804;52.350;6.684;2024-03-25T04:07:00;26.97;;;5.03;;
19339;SDS011;9804;52.350;6.684;2024-03-25T04:09:27;24.30;;;4.00;;
19339;SDS011;9804;52.350;6.684;2024-03-25T04:11:54;28.07;;;4.83;;
19339;SDS011;9804;52.350;6.684;2024-03-25T04:14:20;22.47;;;4.33;;
19339;SDS011;9804;52.350;6.684;2024-03-25T04:16:45;26.97;;;4.23;;
19339;SDS011;9804;52.350;6.684;2024-03-25T04:19:12;21.70;;;3.77;;
19339;SDS011;9804;52.350;6.684;2024-03-25T04:21:38;25.77;;;4.07;;
19339;SDS011;9804;52.350;6.684;2024-03-25T04:24:04;24.40;;;3.77;;
19339;SDS011;9804;52.350;6.684;2024-03-25T04:26:30;29.27;;;4.07;;
19339;SDS011;9804;52.350;6.684;2024-03-25T04:28:55;21.33;;;4.40;;
19339;SDS011;9804;52.350;6.684;2024-03-25T04:31:21;21.70;;;4.03;;
19339;SDS011;9804;52.350;6.684;2024-03-25T04:33:46;57.47;;;5.30;;
19339;SDS011;9804;52.350;6.684;2024-03-25T04:36:12;20.93;;;4.33;;
19339;SDS011;9804;52.350;6.684;2024-03-25T04:38:37;24.47;;;4.80;;
19339;SDS011;9804;52.350;6.684;2024-03-25T04:41:04;23.27;;;4.60;;
19339;SDS011;9804;52.350;6.684;2024-03-25T04:43:29;22.93;;;4.17;;
19339;SDS011;9804;52.350;6.684;2024-03-25T04:45:56;22.63;;;4.67;;
19339;SDS011;9804;52.350;6.684;2024-03-25T04:48:25;22.60;;;4.53;;
19339;SDS011;9804;52.350;6.684;2024-03-25T04:50:50;26.27;;;4.57;;
19339;SDS011;9804;52.350;6.684;2024-03-25T04:53:16;24.77;;;3.83;;
19339;SDS011;9804;52.350;6.684;2024-03-25T04:55:41;30.00;;;4.83;;
19339;SDS011;9804;52.350;6.684;2024-03-25T04:58:07;26.93;;;4.73;;
19339;SDS011;9804;52.350;6.684;2024-03-25T05:00:32;27.87;;;4.73;;
19339;SDS011;9804;52.350;6.684;2024-03-25T05:02:57;24.63;;;4.43;;
19339;SDS011;9804;52.350;6.684;2024-03-25T05:05:23;23.33;;;5.00;;
19339;SDS011;9804;52.350;6.684;2024-03-25T05:07:49;30.80;;;5.40;;
19339;SDS011;9804;52.350;6.684;2024-03-25T05:10:14;17.40;;;3.67;;
19339;SDS011;9804;52.350;6.684;2024-03-25T05:12:40;20.97;;;4.83;;
19339;SDS011;9804;52.350;6.684;2024-03-25T05:15:05;24.13;;;5.60;;
19339;SDS011;9804;52.350;6.684;2024-03-25T05:17:31;25.53;;;4.87;;
19339;SDS011;9804;52.350;6.684;2024-03-25T05:19:56;29.20;;;4.97;;
19339;SDS011;9804;52.350;6.684;2024-03-25T05:22:22;27.10;;;4.67;;
19339;SDS011;9804;52.350;6.684;2024-03-25T05:24:47;17.43;;;4.23;;
19339;SDS011;9804;52.350;6.684;2024-03-25T05:27:12;26.13;;;4.37;;
19339;SDS011;9804;52.350;6.684;2024-03-25T05:29:38;23.77;;;4.80;;
19339;SDS011;9804;52.350;6.684;2024-03-25T05:32:03;21.70;;;4.73;;
19339;SDS011;9804;52.350;6.684;2024-03-25T05:34:29;27.00;;;4.87;;
19339;SDS011;9804;52.350;6.684;2024-03-25T05:36:56;33.50;;;5.27;;
19339;SDS011;9804;52.350;6.684;2024-03-25T05:39:22;28.80;;;4.77;;
19339;SDS011;9804;52.350;6.684;2024-03-25T05:41:48;25.47;;;4.87;;
19339;SDS011;9804;52.350;6.684;2024-03-25T05:44:13;27.40;;;5.30;;
19339;SDS011;9804;52.350;6.684;2024-03-25T05:46:39;26.83;;;5.07;;
19339;SDS011;9804;52.350;6.684;2024-03-25T05:49:05;23.10;;;4.30;;
19339;SDS011;9804;52.350;6.684;2024-03-25T05:51:31;28.57;;;4.77;;
19339;SDS011;9804;52.350;6.684;2024-03-25T05:53:58;21.33;;;5.70;;
19339;SDS011;9804;52.350;6.684;2024-03-25T05:56:24;27.83;;;4.37;;
19339;SDS011;9804;52.350;6.684;2024-03-25T05:58:55;30.60;;;5.13;;
19339;SDS011;9804;52.350;6.684;2024-03-25T06:01:23;23.20;;;4.23;;
19339;SDS011;9804;52.350;6.684;2024-03-25T06:03:49;24.03;;;4.43;;
19339;SDS011;9804;52.350;6.684;2024-03-25T06:06:14;25.73;;;4.13;;
19339;SDS011;9804;52.350;6.684;2024-03-25T06:08:40;24.53;;;4.40;;
19339;SDS011;9804;52.350;6.684;2024-03-25T06:11:05;25.47;;;4.97;;
19339;SDS011;9804;52.350;6.684;2024-03-25T06:13:31;27.83;;;6.67;;
19339;SDS011;9804;52.350;6.684;2024-03-25T06:15:58;25.23;;;4.90;;
19339;SDS011;9804;52.350;6.684;2024-03-25T06:18:23;19.17;;;4.30;;
19339;SDS011;9804;52.350;6.684;2024-03-25T06:20:49;28.57;;;4.43;;
19339;SDS011;9804;52.350;6.684;2024-03-25T06:23:27;27.40;;;4.60;;
19339;SDS011;9804;52.350;6.684;2024-03-25T06:25:54;28.10;;;4.87;;
19339;SDS011;9804;52.350;6.684;2024-03-25T06:28:20;24.73;;;4.70;;
19339;SDS011;9804;52.350;6.684;2024-03-25T06:30:46;24.97;;;4.90;;
19339;SDS011;9804;52.350;6.684;2024-03-25T06:33:31;22.87;;;4.57;;
19339;SDS011;9804;52.350;6.684;2024-03-25T06:36:15;23.13;;;4.23;;
19339;SDS011;9804;52.350;6.684;2024-03-25T06:38:41;21.87;;;4.73;;
19339;SDS011;9804;52.350;6.684;2024-03-25T06:41:06;20.93;;;4.30;;
19339;SDS011;9804;52.350;6.684;2024-03-25T06:43:32;25.37;;;4.70;;
19339;SDS011;9804;52.350;6.684;2024-03-25T06:45:57;25.47;;;5.10;;
19339;SDS011;9804;52.350;6.684;2024-03-25T06:48:23;36.30;;;4.50;;
19339;SDS011;9804;52.350;6.684;2024-03-25T06:50:52;28.90;;;4.73;;
19339;SDS011;9804;52.350;6.684;2024-03-25T06:53:20;27.40;;;4.57;;
19339;SDS011;9804;52.350;6.684;2024-03-25T06:55:53;23.80;;;4.67;;
19339;SDS011;9804;52.350;6.684;2024-03-25T06:58:22;25.87;;;5.23;;
19339;SDS011;9804;52.350;6.684;2024-03-25T07:00:49;28.17;;;5.27;;
19339;SDS011;9804;52.350;6.684;2024-03-25T07:03:15;29.50;;;4.90;;
19339;SDS011;9804;52.350;6.684;2024-03-25T07:05:41;27.03;;;5.13;;
19339;SDS011;9804;52.350;6.684;2024-03-25T07:08:08;29.70;;;4.83;;
19339;SDS011;9804;52.350;6.684;2024-03-25T07:10:34;26.47;;;4.90;;
19339;SDS011;9804;52.350;6.684;2024-03-25T07:12:59;23.73;;;4.63;;
19339;SDS011;9804;52.350;6.684;2024-03-25T07:15:25;22.07;;;4.50;;
19339;SDS011;9804;52.350;6.684;2024-03-25T07:17:50;27.60;;;5.57;;
19339;SDS011;9804;52.350;6.684;2024-03-25T07:20:15;21.80;;;5.10;;
19339;SDS011;9804;52.350;6.684;2024-03-25T07:22:41;28.17;;;5.20;;
19339;SDS011;9804;52.350;6.684;2024-03-25T07:25:06;37.33;;;5.40;;
19339;SDS011;9804;52.350;6.684;2024-03-25T07:27:34;23.77;;;5.20;;
19339;SDS011;9804;52.350;6.684;2024-03-25T07:29:59;24.93;;;4.80;;
19339;SDS011;9804;52.350;6.684;2024-03-25T07:32:25;25.20;;;5.27;;
19339;SDS011;9804;52.350;6.684;2024-03-25T07:34:50;20.73;;;4.87;;
19339;SDS011;9804;52.350;6.684;2024-03-25T07:37:16;20.40;;;5.00;;
19339;SDS011;9804;52.350;6.684;2024-03-25T07:39:42;30.73;;;5.00;;
19339;SDS011;9804;52.350;6.684;2024-03-25T07:42:07;21.30;;;4.53;;
19339;SDS011;9804;52.350;6.684;2024-03-25T07:44:33;29.73;;;5.03;;
19339;SDS011;9804;52.350;6.684;2024-03-25T07:46:58;29.40;;;4.73;;
19339;SDS011;9804;52.350;6.684;2024-03-25T07:49:24;21.30;;;4.33;;
19339;SDS011;9804;52.350;6.684;2024-03-25T07:51:49;26.00;;;5.63;;
19339;SDS011;9804;52.350;6.684;2024-03-25T07:54:14;26.03;;;4.33;;
19339;SDS011;9804;52.350;6.684;2024-03-25T07:56:41;24.58;;;4.07;;
19339;SDS011;9804;52.350;6.684;2024-03-25T07:59:07;29.97;;;4.63;;
19339;SDS011;9804;52.350;6.684;2024-03-25T08:01:32;19.13;;;3.63;;
19339;SDS011;9804;52.350;6.684;2024-03-25T08:03:58;20.13;;;3.75;;
19339;SDS011;9804;52.350;6.684;2024-03-25T08:06:23;20.43;;;3.93;;
19339;SDS011;9804;52.350;6.684;2024-03-25T08:08:48;29.05;;;4.65;;
19339;SDS011;9804;52.350;6.684;2024-03-25T08:11:14;21.27;;;3.80;;
19339;SDS011;9804;52.350;6.684;2024-03-25T08:13:40;27.73;;;3.58;;
19339;SDS011;9804;52.350;6.684;2024-03-25T08:16:05;22.55;;;4.10;;
19339;SDS011;9804;52.350;6.684;2024-03-25T08:18:31;25.90;;;3.65;;
19339;SDS011;9804;52.350;6.684;2024-03-25T08:20:56;23.83;;;4.18;;
19339;SDS011;9804;52.350;6.684;2024-03-25T08:23:21;21.25;;;5.40;;
19339;SDS011;9804;52.350;6.684;2024-03-25T08:25:47;19.15;;;4.00;;
19339;SDS011;9804;52.350;6.684;2024-03-25T08:28:12;19.05;;;3.72;;
19339;SDS011;9804;52.350;6.684;2024-03-25T08:30:37;18.23;;;3.60;;
19339;SDS011;9804;52.350;6.684;2024-03-25T08:33:03;15.00;;;3.60;;
19339;SDS011;9804;52.350;6.684;2024-03-25T08:35:29;21.55;;;3.30;;
19339;SDS011;9804;52.350;6.684;2024-03-25T08:37:54;16.88;;;3.47;;
19339;SDS011;9804;52.350;6.684;2024-03-25T08:40:19;23.63;;;4.38;;
19339;SDS011;9804;52.350;6.684;2024-03-25T08:42:45;28.35;;;3.97;;
19339;SDS011;9804;52.350;6.684;2024-03-25T08:45:10;16.70;;;3.03;;
19339;SDS011;9804;52.350;6.684;2024-03-25T08:47:36;23.90;;;3.40;;
19339;SDS011;9804;52.350;6.684;2024-03-25T08:50:03;17.05;;;2.72;;
19339;SDS011;9804;52.350;6.684;2024-03-25T08:52:28;18.08;;;3.20;;
19339;SDS011;9804;52.350;6.684;2024-03-25T08:54:54;18.38;;;3.10;;
19339;SDS011;9804;52.350;6.684;2024-03-25T08:57:19;18.85;;;3.35;;
19339;SDS011;9804;52.350;6.684;2024-03-25T08:59:45;14.88;;;2.70;;
19339;SDS011;9804;52.350;6.684;2024-03-25T09:02:10;16.92;;;2.55;;
19339;SDS011;9804;52.350;6.684;2024-03-25T09:04:36;16.13;;;2.83;;
19339;SDS011;9804;52.350;6.684;2024-03-25T09:07:01;16.60;;;3.15;;
19339;SDS011;9804;52.350;6.684;2024-03-25T09:09:27;15.93;;;3.20;;
19339;SDS011;9804;52.350;6.684;2024-03-25T09:12:11;11.90;;;1.90;;
19339;SDS011;9804;52.350;6.684;2024-03-25T09:14:36;18.63;;;3.50;;
19339;SDS011;9804;52.350;6.684;2024-03-25T09:17:03;17.08;;;2.33;;
19339;SDS011;9804;52.350;6.684;2024-03-25T09:19:29;19.13;;;3.42;;
19339;SDS011;9804;52.350;6.684;2024-03-25T09:21:54;20.52;;;3.72;;
19339;SDS011;9804;52.350;6.684;2024-03-25T09:24:20;21.20;;;2.80;;
19339;SDS011;9804;52.350;6.684;2024-03-25T09:26:45;13.23;;;2.38;;
19339;SDS011;9804;52.350;6.684;2024-03-25T09:29:14;8.00;;;2.28;;
19339;SDS011;9804;52.350;6.684;2024-03-25T09:31:40;10.30;;;1.98;;
19339;SDS011;9804;52.350;6.684;2024-03-25T09:34:05;8.70;;;1.60;;
19339;SDS011;9804;52.350;6.684;2024-03-25T09:36:30;9.23;;;1.40;;
19339;SDS011;9804;52.350;6.684;2024-03-25T09:38:56;10.55;;;1.77;;
19339;SDS011;9804;52.350;6.684;2024-03-25T09:41:22;10.02;;;1.70;;
19339;SDS011;9804;52.350;6.684;2024-03-25T09:43:48;11.52;;;1.60;;
19339;SDS011;9804;52.350;6.684;2024-03-25T09:46:17;7.38;;;1.40;;
19339;SDS011;9804;52.350;6.684;2024-03-25T09:48:42;7.53;;;1.20;;
19339;SDS011;9804;52.350;6.684;2024-03-25T09:51:11;7.80;;;1.15;;
19339;SDS011;9804;52.350;6.684;2024-03-25T09:53:36;7.13;;;1.42;;
19339;SDS011;9804;52.350;6.684;2024-03-25T09:56:02;11.57;;;1.52;;
19339;SDS011;9804;52.350;6.684;2024-03-25T09:58:28;6.35;;;1.27;;
19339;SDS011;9804;52.350;6.684;2024-03-25T10:00:55;7.78;;;1.50;;
19339;SDS011;9804;52.350;6.684;2024-03-25T10:03:21;9.85;;;1.38;;
19339;SDS011;9804;52.350;6.684;2024-03-25T10:05:46;10.70;;;2.03;;
19339;SDS011;9804;52.350;6.684;2024-03-25T10:08:12;10.07;;;1.80;;
19339;SDS011;9804;52.350;6.684;2024-03-25T10:10:37;12.70;;;1.70;;
19339;SDS011;9804;52.350;6.684;2024-03-25T10:13:03;14.25;;;2.38;;
19339;SDS011;9804;52.350;6.684;2024-03-25T10:15:30;6.72;;;1.42;;
19339;SDS011;9804;52.350;6.684;2024-03-25T10:17:56;6.63;;;1.60;;
19339;SDS011;9804;52.350;6.684;2024-03-25T10:20:21;7.97;;;1.40;;
19339;SDS011;9804;52.350;6.684;2024-03-25T10:22:47;10.70;;;2.53;;
19339;SDS011;9804;52.350;6.684;2024-03-25T10:27:56;6.50;;;1.60;;
19339;SDS011;9804;52.350;6.684;2024-03-25T10:30:22;7.43;;;1.42;;
19339;SDS011;9804;52.350;6.684;2024-03-25T10:32:57;9.95;;;1.60;;
19339;SDS011;9804;52.350;6.684;2024-03-25T10:35:24;11.23;;;1.83;;
19339;SDS011;9804;52.350;6.684;2024-03-25T10:37:51;10.07;;;1.77;;
19339;SDS011;9804;52.350;6.684;2024-03-25T10:40:20;12.23;;;2.20;;
19339;SDS011;9804;52.350;6.684;2024-03-25T10:42:47;9.82;;;1.75;;
19339;SDS011;9804;52.350;6.684;2024-03-25T10:45:13;10.13;;;2.92;;
19339;SDS011;9804;52.350;6.684;2024-03-25T10:47:38;6.65;;;1.27;;
19339;SDS011;9804;52.350;6.684;2024-03-25T10:50:08;12.57;;;2.15;;
19339;SDS011;9804;52.350;6.684;2024-03-25T10:52:38;11.55;;;1.98;;
19339;SDS011;9804;52.350;6.684;2024-03-25T10:55:04;13.43;;;2.30;;
19339;SDS011;9804;52.350;6.684;2024-03-25T10:57:32;8.70;;;1.90;;
19339;SDS011;9804;52.350;6.684;2024-03-25T10:59:59;9.65;;;1.98;;
19339;SDS011;9804;52.350;6.684;2024-03-25T11:02:26;11.80;;;1.45;;
19339;SDS011;9804;52.350;6.684;2024-03-25T11:04:53;9.55;;;1.65;;
19339;SDS011;9804;52.350;6.684;2024-03-25T11:07:27;9.45;;;1.83;;
19339;SDS011;9804;52.350;6.684;2024-03-25T11:10:02;10.25;;;1.63;;
19339;SDS011;9804;52.350;6.684;2024-03-25T11:12:32;5.82;;;1.55;;
19339;SDS011;9804;52.350;6.684;2024-03-25T11:15:01;7.32;;;1.42;;
19339;SDS011;9804;52.350;6.684;2024-03-25T11:17:30;7.60;;;1.40;;
19339;SDS011;9804;52.350;6.684;2024-03-25T11:20:06;6.53;;;1.13;;
19339;SDS011;9804;52.350;6.684;2024-03-25T11:22:35;8.27;;;1.52;;
19339;SDS011;9804;52.350;6.684;2024-03-25T11:25:07;10.02;;;2.00;;
19339;SDS011;9804;52.350;6.684;2024-03-25T11:27:36;6.70;;;1.38;;
19339;SDS011;9804;52.350;6.684;2024-03-25T11:30:02;6.30;;;1.35;;
19339;SDS011;9804;52.350;6.684;2024-03-25T11:32:29;7.07;;;1.55;;
19339;SDS011;9804;52.350;6.684;2024-03-25T11:34:55;5.35;;;1.38;;
19339;SDS011;9804;52.350;6.684;2024-03-25T11:37:20;6.80;;;1.20;;
19339;SDS011;9804;52.350;6.684;2024-03-25T11:39:46;7.45;;;1.45;;
19339;SDS011;9804;52.350;6.684;2024-03-25T11:42:12;11.35;;;1.63;;
19339;SDS011;9804;52.350;6.684;2024-03-25T11:44:38;5.43;;;1.10;;
19339;SDS011;9804;52.350;6.684;2024-03-25T11:47:05;5.22;;;1.15;;
19339;SDS011;9804;52.350;6.684;2024-03-25T11:49:36;4.93;;;1.17;;
19339;SDS011;9804;52.350;6.684;2024-03-25T11:52:06;7.65;;;1.60;;
19339;SDS011;9804;52.350;6.684;2024-03-25T11:54:32;7.57;;;1.52;;
19339;SDS011;9804;52.350;6.684;2024-03-25T11:56:57;8.43;;;1.33;;
19339;SDS011;9804;52.350;6.684;2024-03-25T11:59:23;4.03;;;1.20;;
19339;SDS011;9804;52.350;6.684;2024-03-25T12:01:50;6.32;;;1.52;;
19339;SDS011;9804;52.350;6.684;2024-03-25T12:04:16;13.93;;;2.17;;
19339;SDS011;9804;52.350;6.684;2024-03-25T12:06:43;6.90;;;1.50;;
19339;SDS011;9804;52.350;6.684;2024-03-25T12:09:10;6.45;;;1.67;;
19339;SDS011;9804;52.350;6.684;2024-03-25T12:11:54;7.03;;;1.38;;
19339;SDS011;9804;52.350;6.684;2024-03-25T12:14:21;9.40;;;1.80;;
19339;SDS011;9804;52.350;6.684;2024-03-25T12:16:47;6.43;;;1.52;;
19339;SDS011;9804;52.350;6.684;2024-03-25T12:19:15;7.35;;;2.05;;
19339;SDS011;9804;52.350;6.684;2024-03-25T12:21:41;9.50;;;1.50;;
19339;SDS011;9804;52.350;6.684;2024-03-25T12:24:06;6.88;;;1.50;;
19339;SDS011;9804;52.350;6.684;2024-03-25T12:26:34;6.25;;;1.67;;
19339;SDS011;9804;52.350;6.684;2024-03-25T12:28:59;9.15;;;1.92;;
19339;SDS011;9804;52.350;6.684;2024-03-25T12:31:25;10.70;;;1.35;;
19339;SDS011;9804;52.350;6.684;2024-03-25T12:33:50;5.68;;;1.17;;
19339;SDS011;9804;52.350;6.684;2024-03-25T12:36:16;6.80;;;1.13;;
19339;SDS011;9804;52.350;6.684;2024-03-25T12:38:41;5.63;;;1.05;;
19339;SDS011;9804;52.350;6.684;2024-03-25T12:41:08;6.05;;;1.10;;
19339;SDS011;9804;52.350;6.684;2024-03-25T12:43:43;6.95;;;1.27;;
19339;SDS011;9804;52.350;6.684;2024-03-25T12:46:10;7.28;;;1.40;;
19339;SDS011;9804;52.350;6.684;2024-03-25T12:48:39;5.57;;;1.20;;
19339;SDS011;9804;52.350;6.684;2024-03-25T12:51:06;8.30;;;1.45;;
19339;SDS011;9804;52.350;6.684;2024-03-25T12:53:36;6.60;;;1.48;;
19339;SDS011;9804;52.350;6.684;2024-03-25T12:56:02;8.30;;;1.35;;
19339;SDS011;9804;52.350;6.684;2024-03-25T12:58:27;5.22;;;1.30;;
19339;SDS011;9804;52.350;6.684;2024-03-25T13:00:53;7.45;;;1.17;;
19339;SDS011;9804;52.350;6.684;2024-03-25T13:03:18;5.80;;;1.00;;
19339;SDS011;9804;52.350;6.684;2024-03-25T13:05:44;5.07;;;1.00;;
19339;SDS011;9804;52.350;6.684;2024-03-25T13:08:09;7.07;;;1.27;;
19339;SDS011;9804;52.350;6.684;2024-03-25T13:10:35;5.80;;;1.33;;
19339;SDS011;9804;52.350;6.684;2024-03-25T13:13:01;6.07;;;1.10;;
19339;SDS011;9804;52.350;6.684;2024-03-25T13:15:27;5.55;;;1.70;;
19339;SDS011;9804;52.350;6.684;2024-03-25T13:17:53;5.80;;;1.30;;
19339;SDS011;9804;52.350;6.684;2024-03-25T13:20:18;7.45;;;1.42;;
19339;SDS011;9804;52.350;6.684;2024-03-25T13:22:44;5.80;;;1.50;;
19339;SDS011;9804;52.350;6.684;2024-03-25T13:25:11;7.00;;;2.00;;
19339;SDS011;9804;52.350;6.684;2024-03-25T13:27:36;10.05;;;1.52;;
19339;SDS011;9804;52.350;6.684;2024-03-25T13:30:03;7.82;;;1.27;;
19339;SDS011;9804;52.350;6.684;2024-03-25T13:32:29;7.00;;;1.50;;
19339;SDS011;9804;52.350;6.684;2024-03-25T13:34:54;8.55;;;1.70;;
19339;SDS011;9804;52.350;6.684;2024-03-25T13:37:20;6.93;;;1.40;;
19339;SDS011;9804;52.350;6.684;2024-03-25T13:39:45;7.85;;;1.80;;
19339;SDS011;9804;52.350;6.684;2024-03-25T13:42:11;5.32;;;1.35;;
19339;SDS011;9804;52.350;6.684;2024-03-25T13:44:36;10.00;;;1.80;;
19339;SDS011;9804;52.350;6.684;2024-03-25T13:47:02;8.05;;;1.55;;
19339;SDS011;9804;52.350;6.684;2024-03-25T13:49:28;5.18;;;1.45;;
19339;SDS011;9804;52.350;6.684;2024-03-25T13:51:57;5.70;;;1.35;;
19339;SDS011;9804;52.350;6.684;2024-03-25T13:54:24;4.78;;;1.33;;
19339;SDS011;9804;52.350;6.684;2024-03-25T13:56:50;6.00;;;1.20;;
19339;SDS011;9804;52.350;6.684;2024-03-25T13:59:16;7.38;;;1.50;;
19339;SDS011;9804;52.350;6.684;2024-03-25T14:01:41;6.70;;;1.23;;
19339;SDS011;9804;52.350;6.684;2024-03-25T14:04:06;8.73;;;1.33;;
19339;SDS011;9804;52.350;6.684;2024-03-25T14:06:32;4.03;;;1.27;;
19339;SDS011;9804;52.350;6.684;2024-03-25T14:08:58;7.00;;;1.50;;
19339;SDS011;9804;52.350;6.684;2024-03-25T14:11:26;10.02;;;1.70;;
19339;SDS011;9804;52.350;6.684;2024-03-25T14:13:51;7.07;;;1.17;;
19339;SDS011;9804;52.350;6.684;2024-03-25T14:16:17;4.88;;;1.05;;
19339;SDS011;9804;52.350;6.684;2024-03-25T14:18:42;7.15;;;1.63;;
19339;SDS011;9804;52.350;6.684;2024-03-25T14:21:08;8.57;;;1.20;;
19339;SDS011;9804;52.350;6.684;2024-03-25T14:23:33;5.97;;;1.08;;
19339;SDS011;9804;52.350;6.684;2024-03-25T14:25:59;5.45;;;0.90;;
19339;SDS011;9804;52.350;6.684;2024-03-25T14:28:24;5.93;;;1.23;;
19339;SDS011;9804;52.350;6.684;2024-03-25T14:30:49;6.10;;;1.17;;
19339;SDS011;9804;52.350;6.684;2024-03-25T14:33:15;4.68;;;1.10;;
19339;SDS011;9804;52.350;6.684;2024-03-25T14:35:41;7.03;;;1.48;;
19339;SDS011;9804;52.350;6.684;2024-03-25T14:38:07;5.10;;;0.90;;
19339;SDS011;9804;52.350;6.684;2024-03-25T14:40:32;5.35;;;1.27;;
19339;SDS011;9804;52.350;6.684;2024-03-25T14:42:57;5.68;;;1.33;;
19339;SDS011;9804;52.350;6.684;2024-03-25T14:45:23;6.97;;;1.45;;
19339;SDS011;9804;52.350;6.684;2024-03-25T14:47:48;7.00;;;1.55;;